sensor_id;sensor_type;location;lat;lon;timestamp;P1;durP1;ratioP1;P2;durP2;ratioP2
24153;SDS011;12312;53.362;-1.518;2022-07-23T00:00:53;5.03;;;3.30;;
24153;SDS011;12312;53.362;-1.518;2022-07-23T00:03:19;6.70;;;2.70;;
24153;SDS011;12312;53.362;-1.518;2022-07-23T00:05:44;4.00;;;2.78;;
24153;SDS011;12312;53.362;-1.518;2022-07-23T00:08:10;6.20;;;3.30;;
24153;SDS011;12312;53.362;-1.518;2022-07-23T00:10:36;6.95;;;3.20;;
24153;SDS011;12312;53.362;-1.518;2022-07-23T00:13:01;6.05;;;2.92;;
24153;SDS011;12312;53.362;-1.518;2022-07-23T00:15:27;4.60;;;2.85;;
24153;SDS011;12312;53.362;-1.518;2022-07-23T00:17:53;7.05;;;3.25;;
24153;SDS011;12312;53.362;-1.518;2022-07-23T00:20:18;9.60;;;3.40;;
24153;SDS011;12312;53.362;-1.518;2022-07-23T00:25:13;4.55;;;3.08;;
24153;SDS011;12312;53.362;-1.518;2022-07-23T00:27:39;7.50;;;3.28;;
24153;SDS011;12312;53.362;-1.518;2022-07-23T00:30:05;5.55;;;3.20;;
24153;SDS011;12312;53.362;-1.518;2022-07-23T00:32:31;7.00;;;4.20;;
24153;SDS011;12312;53.362;-1.518;2022-07-23T00:34:57;6.82;;;3.25;;
24153;SDS011;12312;53.362;-1.518;2022-07-23T00:37:23;6.60;;;3.28;;
24153;SDS011;12312;53.362;-1.518;2022-07-23T00:39:48;11.80;;;4.05;;
24153;SDS011;12312;53.362;-1.518;2022-07-23T00:42:14;4.95;;;2.95;;
24153;SDS011;12312;53.362;-1.518;2022-07-23T00:44:39;7.78;;;3.90;;
24153;SDS011;12312;53.362;-1.518;2022-07-23T00:47:05;6.45;;;3.00;;
24153;SDS011;12312;53.362;-1.518;2022-07-23T00:49:31;6.15;;;3.10;;
24153;SDS011;12312;53.362;-1.518;2022-07-23T00:51:57;4.80;;;3.00;;
24153;SDS011;12312;53.362;-1.518;2022-07-23T00:54:27;8.13;;;3.40;;
24153;SDS011;12312;53.362;-1.518;2022-07-23T00:56:53;6.22;;;3.30;;
24153;SDS011;12312;53.362;-1.518;2022-07-23T00:59:18;5.00;;;3.00;;
24153;SDS011;12312;53.362;-1.518;2022-07-23T01:01:44;6.65;;;3.10;;
24153;SDS011;12312;53.362;-1.518;2022-07-23T01:04:12;6.10;;;3.00;;
24153;SDS011;12312;53.362;-1.518;2022-07-23T01:06:38;9.15;;;3.08;;
24153;SDS011;12312;53.362;-1.518;2022-07-23T01:09:07;8.88;;;3.42;;
24153;SDS011;12312;53.362;-1.518;2022-07-23T01:11:33;4.22;;;3.40;;
24153;SDS011;12312;53.362;-1.518;2022-07-23T01:14:16;10.10;;;3.45;;
24153;SDS011;12312;53.362;-1.518;2022-07-23T01:16:43;7.65;;;3.40;;
24153;SDS011;12312;53.362;-1.518;2022-07-23T01:19:11;7.15;;;3.75;;
24153;SDS011;12312;53.362;-1.518;2022-07-23T01:21:41;6.95;;;3.88;;
24153;SDS011;12312;53.362;-1.518;2022-07-23T01:24:08;8.57;;;4.07;;
24153;SDS011;12312;53.362;-1.518;2022-07-23T01:26:35;5.97;;;3.55;;
24153;SDS011;12312;53.362;-1.518;2022-07-23T01:29:01;7.22;;;4.10;;
24153;SDS011;12312;53.362;-1.518;2022-07-23T01:31:28;5.65;;;3.67;;
24153;SDS011;12312;53.362;-1.518;2022-07-23T01:33:53;6.47;;;3.47;;
24153;SDS011;12312;53.362;-1.518;2022-07-23T01:36:21;5.68;;;3.78;;
24153;SDS011;12312;53.362;-1.518;2022-07-23T01:38:47;7.57;;;3.72;;
24153;SDS011;12312;53.362;-1.518;2022-07-23T01:41:13;9.70;;;3.60;;
24153;SDS011;12312;53.362;-1.518;2022-07-23T01:43:39;7.95;;;3.92;;
24153;SDS011;12312;53.362;-1.518;2022-07-23T01:46:05;6.75;;;3.75;;
24153;SDS011;12312;53.362;-1.518;2022-07-23T01:48:30;5.88;;;3.50;;
24153;SDS011;12312;53.362;-1.518;2022-07-23T01:50:56;4.82;;;3.50;;
24153;SDS011;12312;53.362;-1.518;2022-07-23T01:53:22;6.07;;;3.53;;
24153;SDS011;12312;53.362;-1.518;2022-07-23T01:55:48;6.93;;;3.08;;
24153;SDS011;12312;53.362;-1.518;2022-07-23T01:58:15;9.23;;;3.58;;
24153;SDS011;12312;53.362;-1.518;2022-07-23T02:00:40;6.35;;;3.58;;
24153;SDS011;12312;53.362;-1.518;2022-07-23T02:03:06;5.50;;;3.22;;
24153;SDS011;12312;53.362;-1.518;2022-07-23T02:05:32;5.43;;;3.22;;
24153;SDS011;12312;53.362;-1.518;2022-07-23T02:07:58;7.30;;;3.85;;
24153;SDS011;12312;53.362;-1.518;2022-07-23T02:10:24;7.28;;;3.50;;
24153;SDS011;12312;53.362;-1.518;2022-07-23T02:12:50;8.25;;;3.95;;
24153;SDS011;12312;53.362;-1.518;2022-07-23T02:15:18;7.22;;;3.97;;
24153;SDS011;12312;53.362;-1.518;2022-07-23T02:17:43;6.57;;;3.90;;
24153;SDS011;12312;53.362;-1.518;2022-07-23T02:20:09;8.35;;;3.50;;
24153;SDS011;12312;53.362;-1.518;2022-07-23T02:22:36;6.72;;;3.92;;
24153;SDS011;12312;53.362;-1.518;2022-07-23T02:25:03;7.15;;;3.85;;
24153;SDS011;12312;53.362;-1.518;2022-07-23T02:27:29;6.45;;;4.32;;
24153;SDS011;12312;53.362;-1.518;2022-07-23T02:29:57;7.63;;;4.25;;
24153;SDS011;12312;53.362;-1.518;2022-07-23T02:32:23;6.75;;;3.90;;
24153;SDS011;12312;53.362;-1.518;2022-07-23T02:34:49;8.60;;;4.70;;
24153;SDS011;12312;53.362;-1.518;2022-07-23T02:37:15;7.10;;;4.10;;
24153;SDS011;12312;53.362;-1.518;2022-07-23T02:39:41;8.63;;;4.60;;
24153;SDS011;12312;53.362;-1.518;2022-07-23T02:42:07;5.72;;;4.05;;
24153;SDS011;12312;53.362;-1.518;2022-07-23T02:44:33;7.63;;;4.20;;
24153;SDS011;12312;53.362;-1.518;2022-07-23T02:46:59;7.35;;;4.03;;
24153;SDS011;12312;53.362;-1.518;2022-07-23T02:49:25;11.63;;;4.65;;
24153;SDS011;12312;53.362;-1.518;2022-07-23T02:51:50;9.25;;;5.13;;
24153;SDS011;12312;53.362;-1.518;2022-07-23T02:54:16;10.43;;;5.60;;
24153;SDS011;12312;53.362;-1.518;2022-07-23T02:56:43;10.77;;;5.43;;
24153;SDS011;12312;53.362;-1.518;2022-07-23T02:59:08;8.25;;;5.20;;
24153;SDS011;12312;53.362;-1.518;2022-07-23T03:01:34;7.07;;;4.85;;
24153;SDS011;12312;53.362;-1.518;2022-07-23T03:04:00;12.05;;;6.18;;
24153;SDS011;12312;53.362;-1.518;2022-07-23T03:06:26;11.48;;;6.38;;
24153;SDS011;12312;53.362;-1.518;2022-07-23T03:08:51;12.25;;;6.60;;
24153;SDS011;12312;53.362;-1.518;2022-07-23T03:11:18;12.90;;;5.15;;
24153;SDS011;12312;53.362;-1.518;2022-07-23T03:13:43;8.55;;;4.88;;
24153;SDS011;12312;53.362;-1.518;2022-07-23T03:16:09;13.25;;;6.30;;
24153;SDS011;12312;53.362;-1.518;2022-07-23T03:18:35;14.85;;;7.15;;
24153;SDS011;12312;53.362;-1.518;2022-07-23T03:21:01;16.70;;;8.60;;
24153;SDS011;12312;53.362;-1.518;2022-07-23T03:23:27;16.80;;;8.05;;
24153;SDS011;12312;53.362;-1.518;2022-07-23T03:25:52;11.45;;;7.43;;
24153;SDS011;12312;53.362;-1.518;2022-07-23T03:28:18;12.10;;;6.72;;
24153;SDS011;12312;53.362;-1.518;2022-07-23T03:30:45;16.60;;;8.68;;
24153;SDS011;12312;53.362;-1.518;2022-07-23T03:33:14;29.35;;;12.85;;
24153;SDS011;12312;53.362;-1.518;2022-07-23T03:35:43;33.85;;;15.00;;
24153;SDS011;12312;53.362;-1.518;2022-07-23T03:38:09;36.58;;;16.05;;
24153;SDS011;12312;53.362;-1.518;2022-07-23T03:40:34;41.78;;;19.52;;
24153;SDS011;12312;53.362;-1.518;2022-07-23T03:43:01;52.22;;;21.67;;
24153;SDS011;12312;53.362;-1.518;2022-07-23T03:45:26;52.80;;;22.10;;
24153;SDS011;12312;53.362;-1.518;2022-07-23T03:47:52;54.30;;;24.10;;
24153;SDS011;12312;53.362;-1.518;2022-07-23T03:50:18;48.13;;;22.58;;
24153;SDS011;12312;53.362;-1.518;2022-07-23T03:52:44;46.80;;;24.30;;
24153;SDS011;12312;53.362;-1.518;2022-07-23T03:55:10;48.15;;;24.33;;
24153;SDS011;12312;53.362;-1.518;2022-07-23T03:57:37;48.00;;;24.95;;
24153;SDS011;12312;53.362;-1.518;2022-07-23T04:00:04;51.40;;;24.50;;
24153;SDS011;12312;53.362;-1.518;2022-07-23T04:02:33;52.38;;;24.23;;
24153;SDS011;12312;53.362;-1.518;2022-07-23T04:05:00;50.33;;;26.13;;
24153;SDS011;12312;53.362;-1.518;2022-07-23T04:07:27;48.13;;;24.70;;
24153;SDS011;12312;53.362;-1.518;2022-07-23T04:09:52;45.25;;;24.67;;
24153;SDS011;12312;53.362;-1.518;2022-07-23T04:12:19;51.53;;;23.90;;
24153;SDS011;12312;53.362;-1.518;2022-07-23T04:14:45;50.15;;;25.80;;
24153;SDS011;12312;53.362;-1.518;2022-07-23T04:17:11;55.03;;;26.40;;
24153;SDS011;12312;53.362;-1.518;2022-07-23T04:19:40;41.92;;;23.33;;
24153;SDS011;12312;53.362;-1.518;2022-07-23T04:22:08;48.35;;;23.95;;
24153;SDS011;12312;53.362;-1.518;2022-07-23T04:24:35;47.67;;;23.63;;
24153;SDS011;12312;53.362;-1.518;2022-07-23T04:27:29;51.75;;;24.00;;
24153;SDS011;12312;53.362;-1.518;2022-07-23T04:29:54;54.78;;;25.02;;
24153;SDS011;12312;53.362;-1.518;2022-07-23T04:32:20;52.70;;;23.00;;
24153;SDS011;12312;53.362;-1.518;2022-07-23T04:34:45;45.83;;;22.15;;
24153;SDS011;12312;53.362;-1.518;2022-07-23T04:37:11;44.80;;;21.23;;
24153;SDS011;12312;53.362;-1.518;2022-07-23T04:39:37;42.38;;;21.42;;
24153;SDS011;12312;53.362;-1.518;2022-07-23T04:42:02;39.10;;;19.52;;
24153;SDS011;12312;53.362;-1.518;2022-07-23T04:44:28;37.70;;;19.23;;
24153;SDS011;12312;53.362;-1.518;2022-07-23T04:46:54;39.03;;;19.25;;
24153;SDS011;12312;53.362;-1.518;2022-07-23T04:49:21;31.08;;;16.67;;
24153;SDS011;12312;53.362;-1.518;2022-07-23T04:51:47;32.45;;;17.00;;
24153;SDS011;12312;53.362;-1.518;2022-07-23T04:54:13;28.67;;;15.75;;
24153;SDS011;12312;53.362;-1.518;2022-07-23T04:56:38;32.97;;;16.80;;
24153;SDS011;12312;53.362;-1.518;2022-07-23T04:59:04;28.63;;;16.48;;
24153;SDS011;12312;53.362;-1.518;2022-07-23T05:01:30;32.13;;;16.38;;
24153;SDS011;12312;53.362;-1.518;2022-07-23T05:03:56;36.72;;;18.65;;
24153;SDS011;12312;53.362;-1.518;2022-07-23T05:06:22;33.40;;;18.85;;
24153;SDS011;12312;53.362;-1.518;2022-07-23T05:08:48;41.22;;;21.10;;
24153;SDS011;12312;53.362;-1.518;2022-07-23T05:11:13;40.50;;;20.75;;
24153;SDS011;12312;53.362;-1.518;2022-07-23T05:13:39;37.17;;;19.50;;
24153;SDS011;12312;53.362;-1.518;2022-07-23T05:16:05;41.92;;;21.45;;
24153;SDS011;12312;53.362;-1.518;2022-07-23T05:18:31;48.63;;;22.60;;
24153;SDS011;12312;53.362;-1.518;2022-07-23T05:20:57;40.40;;;22.27;;
24153;SDS011;12312;53.362;-1.518;2022-07-23T05:23:23;43.90;;;22.67;;
24153;SDS011;12312;53.362;-1.518;2022-07-23T05:25:48;49.80;;;23.08;;
24153;SDS011;12312;53.362;-1.518;2022-07-23T05:28:15;42.05;;;22.63;;
24153;SDS011;12312;53.362;-1.518;2022-07-23T05:30:41;52.63;;;23.60;;
24153;SDS011;12312;53.362;-1.518;2022-07-23T05:33:06;40.42;;;20.33;;
24153;SDS011;12312;53.362;-1.518;2022-07-23T05:35:34;34.13;;;18.23;;
24153;SDS011;12312;53.362;-1.518;2022-07-23T05:38:00;35.40;;;18.60;;
24153;SDS011;12312;53.362;-1.518;2022-07-23T05:40:25;36.50;;;18.80;;
24153;SDS011;12312;53.362;-1.518;2022-07-23T05:42:51;38.42;;;18.98;;
24153;SDS011;12312;53.362;-1.518;2022-07-23T05:45:16;39.30;;;18.83;;
24153;SDS011;12312;53.362;-1.518;2022-07-23T05:47:43;40.00;;;20.65;;
24153;SDS011;12312;53.362;-1.518;2022-07-23T05:50:10;52.35;;;26.10;;
24153;SDS011;12312;53.362;-1.518;2022-07-23T05:52:40;49.63;;;25.90;;
24153;SDS011;12312;53.362;-1.518;2022-07-23T05:55:08;52.65;;;26.75;;
24153;SDS011;12312;53.362;-1.518;2022-07-23T05:57:35;46.67;;;24.48;;
24153;SDS011;12312;53.362;-1.518;2022-07-23T06:00:03;43.72;;;21.75;;
24153;SDS011;12312;53.362;-1.518;2022-07-23T06:02:30;39.67;;;20.92;;
24153;SDS011;12312;53.362;-1.518;2022-07-23T06:04:56;37.47;;;20.90;;
24153;SDS011;12312;53.362;-1.518;2022-07-23T06:07:23;43.55;;;20.90;;
24153;SDS011;12312;53.362;-1.518;2022-07-23T06:09:48;45.92;;;24.42;;
24153;SDS011;12312;53.362;-1.518;2022-07-23T06:12:14;51.08;;;25.63;;
24153;SDS011;12312;53.362;-1.518;2022-07-23T06:14:41;51.45;;;26.33;;
24153;SDS011;12312;53.362;-1.518;2022-07-23T06:17:07;49.65;;;24.92;;
24153;SDS011;12312;53.362;-1.518;2022-07-23T06:19:33;53.22;;;26.98;;
24153;SDS011;12312;53.362;-1.518;2022-07-23T06:21:59;56.80;;;27.63;;
24153;SDS011;12312;53.362;-1.518;2022-07-23T06:24:25;57.72;;;28.73;;
24153;SDS011;12312;53.362;-1.518;2022-07-23T06:26:50;61.65;;;27.98;;
24153;SDS011;12312;53.362;-1.518;2022-07-23T06:29:16;65.60;;;28.42;;
24153;SDS011;12312;53.362;-1.518;2022-07-23T06:31:42;56.17;;;26.80;;
24153;SDS011;12312;53.362;-1.518;2022-07-23T06:34:08;61.10;;;27.30;;
24153;SDS011;12312;53.362;-1.518;2022-07-23T06:36:34;60.85;;;28.25;;
24153;SDS011;12312;53.362;-1.518;2022-07-23T06:38:59;61.50;;;28.20;;
24153;SDS011;12312;53.362;-1.518;2022-07-23T06:41:25;66.30;;;28.27;;
24153;SDS011;12312;53.362;-1.518;2022-07-23T06:43:51;63.78;;;29.35;;
24153;SDS011;12312;53.362;-1.518;2022-07-23T06:46:16;64.20;;;28.85;;
24153;SDS011;12312;53.362;-1.518;2022-07-23T06:48:42;59.67;;;28.00;;
24153;SDS011;12312;53.362;-1.518;2022-07-23T06:51:08;53.72;;;24.85;;
24153;SDS011;12312;53.362;-1.518;2022-07-23T06:53:34;51.85;;;24.27;;
24153;SDS011;12312;53.362;-1.518;2022-07-23T06:56:00;52.22;;;25.42;;
24153;SDS011;12312;53.362;-1.518;2022-07-23T06:58:26;40.65;;;21.20;;
24153;SDS011;12312;53.362;-1.518;2022-07-23T07:00:52;38.92;;;20.27;;
24153;SDS011;12312;53.362;-1.518;2022-07-23T07:03:18;38.80;;;20.85;;
24153;SDS011;12312;53.362;-1.518;2022-07-23T07:05:44;38.72;;;19.30;;
24153;SDS011;12312;53.362;-1.518;2022-07-23T07:08:11;40.63;;;20.67;;
24153;SDS011;12312;53.362;-1.518;2022-07-23T07:10:37;40.90;;;20.15;;
24153;SDS011;12312;53.362;-1.518;2022-07-23T07:13:03;37.42;;;17.98;;
24153;SDS011;12312;53.362;-1.518;2022-07-23T07:15:29;44.33;;;20.73;;
24153;SDS011;12312;53.362;-1.518;2022-07-23T07:17:54;39.17;;;19.98;;
24153;SDS011;12312;53.362;-1.518;2022-07-23T07:20:20;35.35;;;18.40;;
24153;SDS011;12312;53.362;-1.518;2022-07-23T07:22:46;34.65;;;17.25;;
24153;SDS011;12312;53.362;-1.518;2022-07-23T07:25:13;29.25;;;13.93;;
24153;SDS011;12312;53.362;-1.518;2022-07-23T07:27:39;34.63;;;16.95;;
24153;SDS011;12312;53.362;-1.518;2022-07-23T07:30:09;25.15;;;13.70;;
24153;SDS011;12312;53.362;-1.518;2022-07-23T07:32:35;27.33;;;13.55;;
24153;SDS011;12312;53.362;-1.518;2022-07-23T07:35:05;35.17;;;17.02;;
24153;SDS011;12312;53.362;-1.518;2022-07-23T07:37:30;27.58;;;13.70;;
24153;SDS011;12312;53.362;-1.518;2022-07-23T07:39:56;24.95;;;13.43;;
24153;SDS011;12312;53.362;-1.518;2022-07-23T07:42:22;18.15;;;10.30;;
24153;SDS011;12312;53.362;-1.518;2022-07-23T07:44:48;20.73;;;11.02;;
24153;SDS011;12312;53.362;-1.518;2022-07-23T07:47:14;33.50;;;17.70;;
24153;SDS011;12312;53.362;-1.518;2022-07-23T07:49:41;30.23;;;17.40;;
24153;SDS011;12312;53.362;-1.518;2022-07-23T07:52:07;33.58;;;18.63;;
24153;SDS011;12312;53.362;-1.518;2022-07-23T07:54:33;34.80;;;18.70;;
24153;SDS011;12312;53.362;-1.518;2022-07-23T07:56:59;38.35;;;19.48;;
24153;SDS011;12312;53.362;-1.518;2022-07-23T07:59:25;36.22;;;19.00;;
24153;SDS011;12312;53.362;-1.518;2022-07-23T08:01:51;36.58;;;19.75;;
24153;SDS011;12312;53.362;-1.518;2022-07-23T08:04:17;38.60;;;20.52;;
24153;SDS011;12312;53.362;-1.518;2022-07-23T08:06:42;35.20;;;19.77;;
24153;SDS011;12312;53.362;-1.518;2022-07-23T08:09:08;34.42;;;19.15;;
24153;SDS011;12312;53.362;-1.518;2022-07-23T08:11:34;39.05;;;20.80;;
24153;SDS011;12312;53.362;-1.518;2022-07-23T08:14:00;35.17;;;20.02;;
24153;SDS011;12312;53.362;-1.518;2022-07-23T08:16:26;35.15;;;18.20;;
24153;SDS011;12312;53.362;-1.518;2022-07-23T08:18:53;36.13;;;19.42;;
24153;SDS011;12312;53.362;-1.518;2022-07-23T08:21:19;34.08;;;17.50;;
24153;SDS011;12312;53.362;-1.518;2022-07-23T08:23:45;27.08;;;16.55;;
24153;SDS011;12312;53.362;-1.518;2022-07-23T08:26:11;29.42;;;16.52;;
24153;SDS011;12312;53.362;-1.518;2022-07-23T08:28:37;27.13;;;16.95;;
24153;SDS011;12312;53.362;-1.518;2022-07-23T08:31:02;24.77;;;15.50;;
24153;SDS011;12312;53.362;-1.518;2022-07-23T08:33:30;23.27;;;14.60;;
24153;SDS011;12312;53.362;-1.518;2022-07-23T08:35:57;24.10;;;13.13;;
24153;SDS011;12312;53.362;-1.518;2022-07-23T08:38:24;25.17;;;13.98;;
24153;SDS011;12312;53.362;-1.518;2022-07-23T08:40:52;24.35;;;14.38;;
24153;SDS011;12312;53.362;-1.518;2022-07-23T08:43:20;24.13;;;12.98;;
24153;SDS011;12312;53.362;-1.518;2022-07-23T08:45:50;26.40;;;14.10;;
24153;SDS011;12312;53.362;-1.518;2022-07-23T08:48:20;22.45;;;13.05;;
24153;SDS011;12312;53.362;-1.518;2022-07-23T08:50:49;21.67;;;13.38;;
24153;SDS011;12312;53.362;-1.518;2022-07-23T08:53:20;24.20;;;14.98;;
24153;SDS011;12312;53.362;-1.518;2022-07-23T08:55:48;24.73;;;15.60;;
24153;SDS011;12312;53.362;-1.518;2022-07-23T08:58:16;21.52;;;14.45;;
24153;SDS011;12312;53.362;-1.518;2022-07-23T09:00:45;25.42;;;15.23;;
24153;SDS011;12312;53.362;-1.518;2022-07-23T09:03:15;25.90;;;15.25;;
24153;SDS011;12312;53.362;-1.518;2022-07-23T09:05:41;25.33;;;14.50;;
24153;SDS011;12312;53.362;-1.518;2022-07-23T09:08:10;23.58;;;13.63;;
24153;SDS011;12312;53.362;-1.518;2022-07-23T09:10:51;24.70;;;13.57;;
24153;SDS011;12312;53.362;-1.518;2022-07-23T09:21:21;19.48;;;12.63;;
24153;SDS011;12312;53.362;-1.518;2022-07-23T09:23:57;23.58;;;12.55;;
24153;SDS011;12312;53.362;-1.518;2022-07-23T09:31:42;18.38;;;10.73;;
24153;SDS011;12312;53.362;-1.518;2022-07-23T09:34:15;16.45;;;10.88;;
24153;SDS011;12312;53.362;-1.518;2022-07-23T09:36:44;14.82;;;9.70;;
24153;SDS011;12312;53.362;-1.518;2022-07-23T09:39:10;19.88;;;12.00;;
24153;SDS011;12312;53.362;-1.518;2022-07-23T09:41:38;17.73;;;12.02;;
24153;SDS011;12312;53.362;-1.518;2022-07-23T09:44:10;15.95;;;10.65;;
24153;SDS011;12312;53.362;-1.518;2022-07-23T09:46:42;18.45;;;11.73;;
24153;SDS011;12312;53.362;-1.518;2022-07-23T09:49:12;19.95;;;11.60;;
24153;SDS011;12312;53.362;-1.518;2022-07-23T09:56:48;16.27;;;10.73;;
24153;SDS011;12312;53.362;-1.518;2022-07-23T09:59:14;18.63;;;10.65;;
24153;SDS011;12312;53.362;-1.518;2022-07-23T10:01:43;17.35;;;11.35;;
24153;SDS011;12312;53.362;-1.518;2022-07-23T10:04:10;22.55;;;12.15;;
24153;SDS011;12312;53.362;-1.518;2022-07-23T10:06:37;20.42;;;11.90;;
24153;SDS011;12312;53.362;-1.518;2022-07-23T10:09:05;19.13;;;11.82;;
24153;SDS011;12312;53.362;-1.518;2022-07-23T10:11:33;18.83;;;10.98;;
24153;SDS011;12312;53.362;-1.518;2022-07-23T10:13:59;16.88;;;11.68;;
24153;SDS011;12312;53.362;-1.518;2022-07-23T10:16:28;17.25;;;11.70;;
24153;SDS011;12312;53.362;-1.518;2022-07-23T10:18:54;16.20;;;10.73;;
24153;SDS011;12312;53.362;-1.518;2022-07-23T10:24:13;16.42;;;10.65;;
24153;SDS011;12312;53.362;-1.518;2022-07-23T10:38:19;16.85;;;10.63;;
24153;SDS011;12312;53.362;-1.518;2022-07-23T10:43:22;15.73;;;10.60;;
24153;SDS011;12312;53.362;-1.518;2022-07-23T10:45:49;21.45;;;10.32;;
24153;SDS011;12312;53.362;-1.518;2022-07-23T10:59:30;15.93;;;9.65;;
24153;SDS011;12312;53.362;-1.518;2022-07-23T11:02:17;13.45;;;9.55;;
24153;SDS011;12312;53.362;-1.518;2022-07-23T11:04:51;13.67;;;8.80;;
24153;SDS011;12312;53.362;-1.518;2022-07-23T11:07:19;15.32;;;8.77;;
24153;SDS011;12312;53.362;-1.518;2022-07-23T11:09:44;15.90;;;8.60;;
24153;SDS011;12312;53.362;-1.518;2022-07-23T11:20:22;10.43;;;6.15;;
24153;SDS011;12312;53.362;-1.518;2022-07-23T11:22:51;11.60;;;5.60;;
24153;SDS011;12312;53.362;-1.518;2022-07-23T11:25:31;10.60;;;6.32;;
24153;SDS011;12312;53.362;-1.518;2022-07-23T11:28:13;9.65;;;5.85;;
24153;SDS011;12312;53.362;-1.518;2022-07-23T11:30:50;11.57;;;6.20;;
24153;SDS011;12312;53.362;-1.518;2022-07-23T11:33:18;9.75;;;6.10;;
24153;SDS011;12312;53.362;-1.518;2022-07-23T11:35:47;10.18;;;6.55;;
24153;SDS011;12312;53.362;-1.518;2022-07-23T11:38:24;10.80;;;6.95;;
24153;SDS011;12312;53.362;-1.518;2022-07-23T11:41:03;12.05;;;6.53;;
24153;SDS011;12312;53.362;-1.518;2022-07-23T11:43:28;12.65;;;6.00;;
24153;SDS011;12312;53.362;-1.518;2022-07-23T11:45:57;9.13;;;4.72;;
24153;SDS011;12312;53.362;-1.518;2022-07-23T11:48:29;9.00;;;4.68;;
24153;SDS011;12312;53.362;-1.518;2022-07-23T11:50:56;8.07;;;4.82;;
24153;SDS011;12312;53.362;-1.518;2022-07-23T11:53:25;9.07;;;5.18;;
24153;SDS011;12312;53.362;-1.518;2022-07-23T11:55:53;9.13;;;5.03;;
24153;SDS011;12312;53.362;-1.518;2022-07-23T11:58:27;9.20;;;6.10;;
24153;SDS011;12312;53.362;-1.518;2022-07-23T12:00:54;10.05;;;5.55;;
24153;SDS011;12312;53.362;-1.518;2022-07-23T12:03:20;11.00;;;5.30;;
24153;SDS011;12312;53.362;-1.518;2022-07-23T12:05:46;11.50;;;5.97;;
24153;SDS011;12312;53.362;-1.518;2022-07-23T12:08:12;10.00;;;5.22;;
24153;SDS011;12312;53.362;-1.518;2022-07-23T12:10:41;10.18;;;4.25;;
24153;SDS011;12312;53.362;-1.518;2022-07-23T12:13:10;10.52;;;4.18;;
24153;SDS011;12312;53.362;-1.518;2022-07-23T12:15:42;9.68;;;4.07;;
24153;SDS011;12312;53.362;-1.518;2022-07-23T12:18:10;7.05;;;4.10;;
24153;SDS011;12312;53.362;-1.518;2022-07-23T12:20:38;7.22;;;3.88;;
24153;SDS011;12312;53.362;-1.518;2022-07-23T12:23:07;10.05;;;4.13;;
24153;SDS011;12312;53.362;-1.518;2022-07-23T12:25:37;6.78;;;3.90;;
24153;SDS011;12312;53.362;-1.518;2022-07-23T12:28:10;8.32;;;4.13;;
24153;SDS011;12312;53.362;-1.518;2022-07-23T12:30:52;8.52;;;4.28;;
24153;SDS011;12312;53.362;-1.518;2022-07-23T12:35:58;5.63;;;4.03;;
24153;SDS011;12312;53.362;-1.518;2022-07-23T12:38:25;7.40;;;4.15;;
24153;SDS011;12312;53.362;-1.518;2022-07-23T12:40:54;7.28;;;3.80;;
24153;SDS011;12312;53.362;-1.518;2022-07-23T12:43:29;8.95;;;3.90;;
24153;SDS011;12312;53.362;-1.518;2022-07-23T12:45:57;5.40;;;3.30;;
24153;SDS011;12312;53.362;-1.518;2022-07-23T12:53:36;5.88;;;3.35;;
24153;SDS011;12312;53.362;-1.518;2022-07-23T12:56:10;7.88;;;3.53;;
24153;SDS011;12312;53.362;-1.518;2022-07-23T13:01:21;7.22;;;3.90;;
24153;SDS011;12312;53.362;-1.518;2022-07-23T13:06:43;5.50;;;2.80;;
24153;SDS011;12312;53.362;-1.518;2022-07-23T13:09:14;2.80;;;1.70;;
24153;SDS011;12312;53.362;-1.518;2022-07-23T13:11:42;5.65;;;1.88;;
24153;SDS011;12312;53.362;-1.518;2022-07-23T13:14:10;4.72;;;1.90;;
24153;SDS011;12312;53.362;-1.518;2022-07-23T13:16:37;3.75;;;1.90;;
24153;SDS011;12312;53.362;-1.518;2022-07-23T13:19:05;5.18;;;2.08;;
24153;SDS011;12312;53.362;-1.518;2022-07-23T13:21:31;5.10;;;2.47;;
24153;SDS011;12312;53.362;-1.518;2022-07-23T13:23:58;3.40;;;2.22;;
24153;SDS011;12312;53.362;-1.518;2022-07-23T13:26:25;3.55;;;2.03;;
24153;SDS011;12312;53.362;-1.518;2022-07-23T13:28:52;3.70;;;2.20;;
24153;SDS011;12312;53.362;-1.518;2022-07-23T13:31:18;3.65;;;2.28;;
24153;SDS011;12312;53.362;-1.518;2022-07-23T13:33:44;2.80;;;2.22;;
24153;SDS011;12312;53.362;-1.518;2022-07-23T13:36:10;4.72;;;2.55;;
24153;SDS011;12312;53.362;-1.518;2022-07-23T13:38:38;4.97;;;2.60;;
24153;SDS011;12312;53.362;-1.518;2022-07-23T13:41:04;4.28;;;2.78;;
24153;SDS011;12312;53.362;-1.518;2022-07-23T13:43:30;4.28;;;3.30;;
24153;SDS011;12312;53.362;-1.518;2022-07-23T13:45:56;7.13;;;3.25;;
24153;SDS011;12312;53.362;-1.518;2022-07-23T13:48:22;8.35;;;4.00;;
24153;SDS011;12312;53.362;-1.518;2022-07-23T13:50:48;7.60;;;3.97;;
24153;SDS011;12312;53.362;-1.518;2022-07-23T13:53:18;6.80;;;3.75;;
24153;SDS011;12312;53.362;-1.518;2022-07-23T13:55:47;4.72;;;3.45;;
24153;SDS011;12312;53.362;-1.518;2022-07-23T13:58:15;7.18;;;4.00;;
24153;SDS011;12312;53.362;-1.518;2022-07-23T14:00:43;7.85;;;4.05;;
24153;SDS011;12312;53.362;-1.518;2022-07-23T14:03:11;4.43;;;3.63;;
24153;SDS011;12312;53.362;-1.518;2022-07-23T14:05:37;5.70;;;4.43;;
24153;SDS011;12312;53.362;-1.518;2022-07-23T14:08:03;6.68;;;4.30;;
24153;SDS011;12312;53.362;-1.518;2022-07-23T14:10:31;6.97;;;3.97;;
24153;SDS011;12312;53.362;-1.518;2022-07-23T14:13:01;8.23;;;5.30;;
24153;SDS011;12312;53.362;-1.518;2022-07-23T14:15:31;6.85;;;4.35;;
24153;SDS011;12312;53.362;-1.518;2022-07-23T14:17:58;7.60;;;4.70;;
24153;SDS011;12312;53.362;-1.518;2022-07-23T14:20:24;6.32;;;4.68;;
24153;SDS011;12312;53.362;-1.518;2022-07-23T14:22:51;6.70;;;4.60;;
24153;SDS011;12312;53.362;-1.518;2022-07-23T14:25:16;7.68;;;4.32;;
24153;SDS011;12312;53.362;-1.518;2022-07-23T14:27:43;5.80;;;4.40;;
24153;SDS011;12312;53.362;-1.518;2022-07-23T14:30:12;9.55;;;4.22;;
24153;SDS011;12312;53.362;-1.518;2022-07-23T14:32:37;6.20;;;4.53;;
24153;SDS011;12312;53.362;-1.518;2022-07-23T14:35:05;8.88;;;4.72;;
24153;SDS011;12312;53.362;-1.518;2022-07-23T14:37:32;8.57;;;4.32;;
24153;SDS011;12312;53.362;-1.518;2022-07-23T14:39:58;7.85;;;4.45;;
24153;SDS011;12312;53.362;-1.518;2022-07-23T14:42:26;6.78;;;4.32;;
24153;SDS011;12312;53.362;-1.518;2022-07-23T14:44:52;6.68;;;4.55;;
24153;SDS011;12312;53.362;-1.518;2022-07-23T14:47:17;7.70;;;4.35;;
24153;SDS011;12312;53.362;-1.518;2022-07-23T14:49:43;8.15;;;4.70;;
24153;SDS011;12312;53.362;-1.518;2022-07-23T14:52:09;9.75;;;4.55;;
24153;SDS011;12312;53.362;-1.518;2022-07-23T14:54:37;5.43;;;4.53;;
24153;SDS011;12312;53.362;-1.518;2022-07-23T14:57:03;5.53;;;4.00;;
24153;SDS011;12312;53.362;-1.518;2022-07-23T14:59:29;6.05;;;4.50;;
24153;SDS011;12312;53.362;-1.518;2022-07-23T15:01:57;7.18;;;4.40;;
24153;SDS011;12312;53.362;-1.518;2022-07-23T15:04:23;6.00;;;4.43;;
24153;SDS011;12312;53.362;-1.518;2022-07-23T15:06:50;6.05;;;4.03;;
24153;SDS011;12312;53.362;-1.518;2022-07-23T15:09:15;7.55;;;4.93;;
24153;SDS011;12312;53.362;-1.518;2022-07-23T15:11:41;5.30;;;4.30;;
24153;SDS011;12312;53.362;-1.518;2022-07-23T15:14:08;7.78;;;4.00;;
24153;SDS011;12312;53.362;-1.518;2022-07-23T15:16:34;5.57;;;3.67;;
24153;SDS011;12312;53.362;-1.518;2022-07-23T15:19:00;5.35;;;4.47;;
24153;SDS011;12312;53.362;-1.518;2022-07-23T15:21:27;6.80;;;4.40;;
24153;SDS011;12312;53.362;-1.518;2022-07-23T15:23:54;5.63;;;3.80;;
24153;SDS011;12312;53.362;-1.518;2022-07-23T15:26:29;6.80;;;3.97;;
24153;SDS011;12312;53.362;-1.518;2022-07-23T15:28:56;5.40;;;4.18;;
24153;SDS011;12312;53.362;-1.518;2022-07-23T15:31:24;7.43;;;4.45;;